Главная страница
METAR-TAF:

METAR-TAF

Аэропорты :

Джинна

Карачи, Пакистан

широта: 24-54N, долгота: 067-08E, высота над уровнем моря: 21 м

Текущие метеонаблюдения

Эта сводка был подготовлена 26 минут назад, в 19:25 UTC
Ветер 3 Узел от северный
Температура 22°C
Влажность 33%
Давление 1016 hPa
Видимость: 6000 м

METAR: OPKC 151925Z 35003KT 6000 NSC 22/05 Q1016 NOSIG

Время: 00:51 (19:51 UTC)

Прогноз

Эта сводка был подготовлена 3 часа и 51 минут назад, в 16:00 UTC
Прогноз действительный с 15-го 18 UTC до 16-го 24 UTC
Ветер 5 Узел от северно-северо-западный
Видимость: 4000 м
дым
временами
С 16-го 01 UTC до 16-го 05 UTC
Ветер 5 Узел от северо-восточный
Видимость: 2500 м
дым
С UTC
Ветер 5 Узел от западный с порывами до 15 Узел
Видимость: 6000 м
С UTC
Ветер 5 Узел от западный
Видимость: 4000 м
дым

TAF: OPKC 151600Z 1518/1624 33005KT 4000 FU NSC TEMPO 1601/1605 05005KT 2500 FU NSC FM 160800 26005G15KT 6000 NSC FM 161600 28005KT 4000 FU NSC

Метеонаблюдения и прогнозы для более 4000 аэропортов (сводки METAR и TAF).

Имеющиеся станции представлены на карте желтыми и красными точками.

Чтобы увидеть название станции, наведите на нее мышь.

Затем щелкните, чтобы увидеть метеонаблюдения и метеопрогнозы.

Управление картой: чтобы увеличить масштаб, щелкните зеленые кнопки с черным крестиком; чтобы уменьшить масштаб, щелкните зеленую кнопку с тире; для просмотра соседних карт щелкайте зеленые стрелки.


METAR-TAF: